sensor_id;sensor_type;location;lat;lon;timestamp;temperature;humidity
4677;DHT22;2352;48.180;11.478;2023-03-23T00:00:49;14.90;66.20
4677;DHT22;2352;48.180;11.478;2023-03-23T00:03:53;14.90;66.00
4677;DHT22;2352;48.180;11.478;2023-03-23T00:06:57;14.90;66.80
4677;DHT22;2352;48.180;11.478;2023-03-23T00:10:01;14.90;66.40
4677;DHT22;2352;48.180;11.478;2023-03-23T00:13:05;14.90;66.40
4677;DHT22;2352;48.180;11.478;2023-03-23T00:16:07;14.90;66.70
4677;DHT22;2352;48.180;11.478;2023-03-23T00:19:17;14.80;66.90
4677;DHT22;2352;48.180;11.478;2023-03-23T00:22:20;14.80;68.30
4677;DHT22;2352;48.180;11.478;2023-03-23T00:25:25;14.70;66.80
4677;DHT22;2352;48.180;11.478;2023-03-23T00:28:28;14.70;66.50
4677;DHT22;2352;48.180;11.478;2023-03-23T00:31:31;14.60;77.90
4677;DHT22;2352;48.180;11.478;2023-03-23T00:34:35;14.60;72.50
4677;DHT22;2352;48.180;11.478;2023-03-23T00:37:39;14.80;68.60
4677;DHT22;2352;48.180;11.478;2023-03-23T00:40:41;14.90;68.60
4677;DHT22;2352;48.180;11.478;2023-03-23T00:43:45;14.90;68.90
4677;DHT22;2352;48.180;11.478;2023-03-23T00:46:49;14.90;67.90
4677;DHT22;2352;48.180;11.478;2023-03-23T00:49:51;14.90;67.90
4677;DHT22;2352;48.180;11.478;2023-03-23T00:52:56;14.90;67.70
4677;DHT22;2352;48.180;11.478;2023-03-23T00:55:58;14.80;67.50
4677;DHT22;2352;48.180;11.478;2023-03-23T00:59:01;14.90;67.60
4677;DHT22;2352;48.180;11.478;2023-03-23T01:02:03;14.80;67.50
4677;DHT22;2352;48.180;11.478;2023-03-23T01:05:06;14.80;68.30
4677;DHT22;2352;48.180;11.478;2023-03-23T01:08:07;14.80;69.70
4677;DHT22;2352;48.180;11.478;2023-03-23T01:11:12;14.90;68.90
4677;DHT22;2352;48.180;11.478;2023-03-23T01:14:18;14.80;69.10
4677;DHT22;2352;48.180;11.478;2023-03-23T01:17:20;14.70;69.70
4677;DHT22;2352;48.180;11.478;2023-03-23T01:20:23;14.60;71.10
4677;DHT22;2352;48.180;11.478;2023-03-23T01:23:26;14.60;70.80
4677;DHT22;2352;48.180;11.478;2023-03-23T01:26:28;14.60;70.70
4677;DHT22;2352;48.180;11.478;2023-03-23T01:29:32;14.60;71.00
4677;DHT22;2352;48.180;11.478;2023-03-23T01:32:34;14.50;71.40
4677;DHT22;2352;48.180;11.478;2023-03-23T01:35:37;14.50;71.60
4677;DHT22;2352;48.180;11.478;2023-03-23T01:38:40;14.50;72.10
4677;DHT22;2352;48.180;11.478;2023-03-23T01:41:42;14.40;71.60
4677;DHT22;2352;48.180;11.478;2023-03-23T01:45:24;14.40;72.00
4677;DHT22;2352;48.180;11.478;2023-03-23T01:48:29;14.30;72.50
4677;DHT22;2352;48.180;11.478;2023-03-23T01:51:34;14.40;72.00
4677;DHT22;2352;48.180;11.478;2023-03-23T01:54:37;14.40;71.90
4677;DHT22;2352;48.180;11.478;2023-03-23T01:57:41;14.40;72.60
4677;DHT22;2352;48.180;11.478;2023-03-23T02:00:44;14.40;73.20
4677;DHT22;2352;48.180;11.478;2023-03-23T02:03:46;14.30;73.10
4677;DHT22;2352;48.180;11.478;2023-03-23T02:06:50;14.30;73.50
4677;DHT22;2352;48.180;11.478;2023-03-23T02:09:52;14.30;73.10
4677;DHT22;2352;48.180;11.478;2023-03-23T02:12:54;14.20;74.00
4677;DHT22;2352;48.180;11.478;2023-03-23T02:16:03;14.20;74.60
4677;DHT22;2352;48.180;11.478;2023-03-23T02:19:48;14.20;74.40
4677;DHT22;2352;48.180;11.478;2023-03-23T02:23:21;14.10;75.60
4677;DHT22;2352;48.180;11.478;2023-03-23T02:26:35;14.20;75.20
4677;DHT22;2352;48.180;11.478;2023-03-23T02:29:52;14.10;76.50
4677;DHT22;2352;48.180;11.478;2023-03-23T02:33:16;14.10;75.50
4677;DHT22;2352;48.180;11.478;2023-03-23T02:36:26;14.10;75.30
4677;DHT22;2352;48.180;11.478;2023-03-23T02:39:31;14.10;75.30
4677;DHT22;2352;48.180;11.478;2023-03-23T02:42:36;14.10;75.20
4677;DHT22;2352;48.180;11.478;2023-03-23T02:45:40;14.10;75.30
4677;DHT22;2352;48.180;11.478;2023-03-23T02:48:44;14.10;75.80
4677;DHT22;2352;48.180;11.478;2023-03-23T02:51:49;14.10;75.50
4677;DHT22;2352;48.180;11.478;2023-03-23T02:54:52;14.10;75.30
4677;DHT22;2352;48.180;11.478;2023-03-23T02:57:55;14.00;75.90
4677;DHT22;2352;48.180;11.478;2023-03-23T03:00:58;14.00;76.30
4677;DHT22;2352;48.180;11.478;2023-03-23T03:04:05;14.00;75.80
4677;DHT22;2352;48.180;11.478;2023-03-23T03:07:26;14.00;76.10
4677;DHT22;2352;48.180;11.478;2023-03-23T03:10:34;13.90;75.60
4677;DHT22;2352;48.180;11.478;2023-03-23T03:13:45;13.90;76.00
4677;DHT22;2352;48.180;11.478;2023-03-23T03:16:53;13.90;76.00
4677;DHT22;2352;48.180;11.478;2023-03-23T03:20:02;13.80;76.50
4677;DHT22;2352;48.180;11.478;2023-03-23T03:23:07;13.90;77.40
4677;DHT22;2352;48.180;11.478;2023-03-23T03:26:13;13.80;77.40
4677;DHT22;2352;48.180;11.478;2023-03-23T03:29:19;13.80;76.90
4677;DHT22;2352;48.180;11.478;2023-03-23T03:32:26;13.70;76.90
4677;DHT22;2352;48.180;11.478;2023-03-23T03:35:36;13.70;78.50
4677;DHT22;2352;48.180;11.478;2023-03-23T03:38:42;13.60;77.90
4677;DHT22;2352;48.180;11.478;2023-03-23T03:41:44;13.50;78.20
4677;DHT22;2352;48.180;11.478;2023-03-23T03:44:46;13.60;78.30
4677;DHT22;2352;48.180;11.478;2023-03-23T03:47:47;13.60;78.50
4677;DHT22;2352;48.180;11.478;2023-03-23T03:50:50;13.60;78.10
4677;DHT22;2352;48.180;11.478;2023-03-23T03:53:57;13.70;77.90
4677;DHT22;2352;48.180;11.478;2023-03-23T03:56:58;13.60;77.10
4677;DHT22;2352;48.180;11.478;2023-03-23T04:00:00;13.60;77.30
4677;DHT22;2352;48.180;11.478;2023-03-23T04:03:13;13.60;78.20
4677;DHT22;2352;48.180;11.478;2023-03-23T04:06:17;13.60;78.60
4677;DHT22;2352;48.180;11.478;2023-03-23T04:09:19;13.60;78.90
4677;DHT22;2352;48.180;11.478;2023-03-23T04:12:21;13.50;78.60
4677;DHT22;2352;48.180;11.478;2023-03-23T04:15:23;13.50;79.20
4677;DHT22;2352;48.180;11.478;2023-03-23T04:18:25;13.50;80.80
4677;DHT22;2352;48.180;11.478;2023-03-23T04:21:29;13.40;80.00
4677;DHT22;2352;48.180;11.478;2023-03-23T04:24:30;13.40;80.10
4677;DHT22;2352;48.180;11.478;2023-03-23T04:27:33;13.50;80.30
4677;DHT22;2352;48.180;11.478;2023-03-23T04:30:36;13.50;79.90
4677;DHT22;2352;48.180;11.478;2023-03-23T04:33:38;13.60;80.30
4677;DHT22;2352;48.180;11.478;2023-03-23T04:36:42;13.60;79.50
4677;DHT22;2352;48.180;11.478;2023-03-23T04:39:44;13.50;80.40
4677;DHT22;2352;48.180;11.478;2023-03-23T04:42:47;13.50;81.10
4677;DHT22;2352;48.180;11.478;2023-03-23T04:45:53;13.50;81.60
4677;DHT22;2352;48.180;11.478;2023-03-23T04:48:56;13.60;81.10
4677;DHT22;2352;48.180;11.478;2023-03-23T04:52:00;13.50;81.40
4677;DHT22;2352;48.180;11.478;2023-03-23T04:55:04;13.50;80.80
4677;DHT22;2352;48.180;11.478;2023-03-23T04:58:07;13.50;81.40
4677;DHT22;2352;48.180;11.478;2023-03-23T05:01:09;13.40;81.10
4677;DHT22;2352;48.180;11.478;2023-03-23T05:04:14;13.50;83.10
4677;DHT22;2352;48.180;11.478;2023-03-23T05:07:18;13.60;82.20
4677;DHT22;2352;48.180;11.478;2023-03-23T05:10:20;13.60;82.30
4677;DHT22;2352;48.180;11.478;2023-03-23T05:13:21;13.60;81.50
4677;DHT22;2352;48.180;11.478;2023-03-23T05:16:23;13.60;82.50
4677;DHT22;2352;48.180;11.478;2023-03-23T05:19:26;13.60;81.60
4677;DHT22;2352;48.180;11.478;2023-03-23T05:22:29;13.60;81.80
4677;DHT22;2352;48.180;11.478;2023-03-23T05:25:32;13.50;81.20
4677;DHT22;2352;48.180;11.478;2023-03-23T05:28:37;13.50;80.40
4677;DHT22;2352;48.180;11.478;2023-03-23T05:31:38;13.50;80.50
4677;DHT22;2352;48.180;11.478;2023-03-23T05:34:40;13.40;80.40
4677;DHT22;2352;48.180;11.478;2023-03-23T05:37:44;13.40;81.10
4677;DHT22;2352;48.180;11.478;2023-03-23T05:40:46;13.50;82.00
4677;DHT22;2352;48.180;11.478;2023-03-23T05:43:49;13.50;81.60
4677;DHT22;2352;48.180;11.478;2023-03-23T05:46:51;13.40;80.90
4677;DHT22;2352;48.180;11.478;2023-03-23T05:49:52;13.50;81.30
4677;DHT22;2352;48.180;11.478;2023-03-23T05:52:56;13.50;82.00
4677;DHT22;2352;48.180;11.478;2023-03-23T05:56:01;13.60;81.40
4677;DHT22;2352;48.180;11.478;2023-03-23T05:59:04;13.50;80.50
4677;DHT22;2352;48.180;11.478;2023-03-23T06:02:05;13.50;80.90
4677;DHT22;2352;48.180;11.478;2023-03-23T06:05:07;13.40;80.80
4677;DHT22;2352;48.180;11.478;2023-03-23T06:08:11;13.30;81.20
4677;DHT22;2352;48.180;11.478;2023-03-23T06:11:13;13.30;81.30
4677;DHT22;2352;48.180;11.478;2023-03-23T06:14:15;13.40;81.10
4677;DHT22;2352;48.180;11.478;2023-03-23T06:17:18;13.50;80.90
4677;DHT22;2352;48.180;11.478;2023-03-23T06:20:19;13.50;81.80
4677;DHT22;2352;48.180;11.478;2023-03-23T06:23:22;13.60;81.50
4677;DHT22;2352;48.180;11.478;2023-03-23T06:26:28;13.60;81.10
4677;DHT22;2352;48.180;11.478;2023-03-23T06:29:31;13.70;81.80
4677;DHT22;2352;48.180;11.478;2023-03-23T06:32:33;13.70;81.30
4677;DHT22;2352;48.180;11.478;2023-03-23T06:35:35;13.70;80.50
4677;DHT22;2352;48.180;11.478;2023-03-23T06:38:39;13.70;81.40
4677;DHT22;2352;48.180;11.478;2023-03-23T06:41:40;13.70;80.00
4677;DHT22;2352;48.180;11.478;2023-03-23T06:44:42;13.80;80.50
4677;DHT22;2352;48.180;11.478;2023-03-23T06:47:45;13.80;80.60
4677;DHT22;2352;48.180;11.478;2023-03-23T06:50:49;13.80;79.70
4677;DHT22;2352;48.180;11.478;2023-03-23T06:53:52;13.80;79.90
4677;DHT22;2352;48.180;11.478;2023-03-23T06:56:54;13.90;79.10
4677;DHT22;2352;48.180;11.478;2023-03-23T06:59:56;13.80;78.90
4677;DHT22;2352;48.180;11.478;2023-03-23T07:02:57;13.90;79.50
4677;DHT22;2352;48.180;11.478;2023-03-23T07:05:59;13.90;79.10
4677;DHT22;2352;48.180;11.478;2023-03-23T07:09:02;14.00;78.80
4677;DHT22;2352;48.180;11.478;2023-03-23T07:12:05;14.00;78.70
4677;DHT22;2352;48.180;11.478;2023-03-23T07:15:07;14.20;78.90
4677;DHT22;2352;48.180;11.478;2023-03-23T07:18:10;14.20;78.50
4677;DHT22;2352;48.180;11.478;2023-03-23T07:21:12;14.30;78.30
4677;DHT22;2352;48.180;11.478;2023-03-23T07:24:15;14.30;78.10
4677;DHT22;2352;48.180;11.478;2023-03-23T07:27:19;14.40;77.40
4677;DHT22;2352;48.180;11.478;2023-03-23T07:30:20;14.50;77.80
4677;DHT22;2352;48.180;11.478;2023-03-23T07:33:22;14.60;77.20
4677;DHT22;2352;48.180;11.478;2023-03-23T07:36:24;14.60;76.20
4677;DHT22;2352;48.180;11.478;2023-03-23T07:39:28;14.70;76.30
4677;DHT22;2352;48.180;11.478;2023-03-23T07:42:30;14.70;76.50
4677;DHT22;2352;48.180;11.478;2023-03-23T07:45:32;14.80;77.60
4677;DHT22;2352;48.180;11.478;2023-03-23T07:48:34;14.90;76.30
4677;DHT22;2352;48.180;11.478;2023-03-23T07:51:36;14.90;75.90
4677;DHT22;2352;48.180;11.478;2023-03-23T07:54:41;15.00;76.70
4677;DHT22;2352;48.180;11.478;2023-03-23T07:57:43;15.10;75.30
4677;DHT22;2352;48.180;11.478;2023-03-23T08:00:45;15.10;75.20
4677;DHT22;2352;48.180;11.478;2023-03-23T08:03:49;15.20;74.80
4677;DHT22;2352;48.180;11.478;2023-03-23T08:06:51;15.10;73.70
4677;DHT22;2352;48.180;11.478;2023-03-23T08:09:54;15.10;75.80
4677;DHT22;2352;48.180;11.478;2023-03-23T08:12:57;15.20;74.80
4677;DHT22;2352;48.180;11.478;2023-03-23T08:16:00;15.30;77.70
4677;DHT22;2352;48.180;11.478;2023-03-23T08:19:03;15.40;77.00
4677;DHT22;2352;48.180;11.478;2023-03-23T08:22:06;15.40;76.50
4677;DHT22;2352;48.180;11.478;2023-03-23T08:25:11;15.50;75.60
4677;DHT22;2352;48.180;11.478;2023-03-23T08:28:13;15.50;75.30
4677;DHT22;2352;48.180;11.478;2023-03-23T08:31:15;15.50;75.10
4677;DHT22;2352;48.180;11.478;2023-03-23T08:37:19;15.70;71.50
4677;DHT22;2352;48.180;11.478;2023-03-23T08:40:24;15.70;72.00
4677;DHT22;2352;48.180;11.478;2023-03-23T08:43:26;15.80;72.20
4677;DHT22;2352;48.180;11.478;2023-03-23T08:46:28;15.90;73.50
4677;DHT22;2352;48.180;11.478;2023-03-23T08:49:31;15.90;72.70
4677;DHT22;2352;48.180;11.478;2023-03-23T08:52:35;16.00;71.30
4677;DHT22;2352;48.180;11.478;2023-03-23T08:55:38;16.10;71.50
4677;DHT22;2352;48.180;11.478;2023-03-23T08:58:41;16.10;70.40
4677;DHT22;2352;48.180;11.478;2023-03-23T09:01:43;16.10;69.30
4677;DHT22;2352;48.180;11.478;2023-03-23T09:04:44;16.20;69.30
4677;DHT22;2352;48.180;11.478;2023-03-23T09:07:48;16.20;70.00
4677;DHT22;2352;48.180;11.478;2023-03-23T09:13:54;16.50;68.60
4677;DHT22;2352;48.180;11.478;2023-03-23T09:16:56;16.60;69.40
4677;DHT22;2352;48.180;11.478;2023-03-23T09:19:58;16.60;67.10
4677;DHT22;2352;48.180;11.478;2023-03-23T09:23:00;16.50;67.80
4677;DHT22;2352;48.180;11.478;2023-03-23T09:26:04;16.80;67.10
4677;DHT22;2352;48.180;11.478;2023-03-23T09:29:05;16.70;66.40
4677;DHT22;2352;48.180;11.478;2023-03-23T09:32:07;16.80;66.70
4677;DHT22;2352;48.180;11.478;2023-03-23T09:35:09;16.80;66.60
4677;DHT22;2352;48.180;11.478;2023-03-23T09:38:12;16.90;65.10
4677;DHT22;2352;48.180;11.478;2023-03-23T09:41:29;16.90;65.60
4677;DHT22;2352;48.180;11.478;2023-03-23T09:44:44;17.00;65.80
4677;DHT22;2352;48.180;11.478;2023-03-23T09:48:14;17.10;65.80
4677;DHT22;2352;48.180;11.478;2023-03-23T09:51:32;17.30;65.10
4677;DHT22;2352;48.180;11.478;2023-03-23T09:54:38;17.40;64.20
4677;DHT22;2352;48.180;11.478;2023-03-23T09:57:46;17.50;63.70
4677;DHT22;2352;48.180;11.478;2023-03-23T10:00:55;17.60;62.80
4677;DHT22;2352;48.180;11.478;2023-03-23T10:04:01;17.60;62.70
4677;DHT22;2352;48.180;11.478;2023-03-23T10:07:10;17.70;62.50
4677;DHT22;2352;48.180;11.478;2023-03-23T10:10:13;17.70;60.80
4677;DHT22;2352;48.180;11.478;2023-03-23T10:13:23;17.60;60.60
4677;DHT22;2352;48.180;11.478;2023-03-23T10:16:29;17.70;61.70
4677;DHT22;2352;48.180;11.478;2023-03-23T10:19:36;17.80;61.20
4677;DHT22;2352;48.180;11.478;2023-03-23T10:22:45;17.70;60.80
4677;DHT22;2352;48.180;11.478;2023-03-23T10:25:52;17.70;60.60
4677;DHT22;2352;48.180;11.478;2023-03-23T10:28:59;17.80;60.50
4677;DHT22;2352;48.180;11.478;2023-03-23T10:32:08;17.90;61.30
4677;DHT22;2352;48.180;11.478;2023-03-23T10:35:14;17.90;60.50
4677;DHT22;2352;48.180;11.478;2023-03-23T10:38:19;17.90;60.00
4677;DHT22;2352;48.180;11.478;2023-03-23T10:41:23;17.90;60.30
4677;DHT22;2352;48.180;11.478;2023-03-23T10:44:26;17.90;60.20
4677;DHT22;2352;48.180;11.478;2023-03-23T10:47:28;17.90;60.10
4677;DHT22;2352;48.180;11.478;2023-03-23T10:50:32;17.90;60.20
4677;DHT22;2352;48.180;11.478;2023-03-23T10:53:37;17.90;61.50
4677;DHT22;2352;48.180;11.478;2023-03-23T10:56:41;18.00;61.60
4677;DHT22;2352;48.180;11.478;2023-03-23T10:59:46;18.10;61.30
4677;DHT22;2352;48.180;11.478;2023-03-23T11:02:58;18.00;62.30
4677;DHT22;2352;48.180;11.478;2023-03-23T11:06:02;18.10;61.50
4677;DHT22;2352;48.180;11.478;2023-03-23T11:09:11;18.20;61.80
4677;DHT22;2352;48.180;11.478;2023-03-23T11:12:17;18.20;60.90
4677;DHT22;2352;48.180;11.478;2023-03-23T11:15:30;18.20;60.40
4677;DHT22;2352;48.180;11.478;2023-03-23T11:18:36;18.20;61.60
4677;DHT22;2352;48.180;11.478;2023-03-23T11:21:39;18.20;62.90
4677;DHT22;2352;48.180;11.478;2023-03-23T11:24:44;18.20;61.80
4677;DHT22;2352;48.180;11.478;2023-03-23T11:27:47;18.20;61.10
4677;DHT22;2352;48.180;11.478;2023-03-23T11:30:52;18.30;61.00
4677;DHT22;2352;48.180;11.478;2023-03-23T11:33:57;18.40;60.00
4677;DHT22;2352;48.180;11.478;2023-03-23T11:37:03;18.40;60.40
4677;DHT22;2352;48.180;11.478;2023-03-23T11:40:15;18.50;59.40
4677;DHT22;2352;48.180;11.478;2023-03-23T11:43:20;18.50;59.90
4677;DHT22;2352;48.180;11.478;2023-03-23T11:46:32;18.50;60.50
4677;DHT22;2352;48.180;11.478;2023-03-23T11:49:50;18.50;59.30
4677;DHT22;2352;48.180;11.478;2023-03-23T11:53:01;18.50;59.70
4677;DHT22;2352;48.180;11.478;2023-03-23T11:56:10;18.50;59.70
4677;DHT22;2352;48.180;11.478;2023-03-23T11:59:15;18.70;60.10
4677;DHT22;2352;48.180;11.478;2023-03-23T12:02:32;18.80;59.00
4677;DHT22;2352;48.180;11.478;2023-03-23T12:05:49;18.80;59.70
4677;DHT22;2352;48.180;11.478;2023-03-23T12:09:02;18.90;59.60
4677;DHT22;2352;48.180;11.478;2023-03-23T12:12:18;19.10;59.00
4677;DHT22;2352;48.180;11.478;2023-03-23T12:15:25;19.20;58.90
4677;DHT22;2352;48.180;11.478;2023-03-23T12:18:42;19.50;57.10
4677;DHT22;2352;48.180;11.478;2023-03-23T12:21:59;19.50;56.60
4677;DHT22;2352;48.180;11.478;2023-03-23T12:25:14;19.50;56.70
4677;DHT22;2352;48.180;11.478;2023-03-23T12:28:26;19.50;55.90
4677;DHT22;2352;48.180;11.478;2023-03-23T12:31:35;19.60;56.20
4677;DHT22;2352;48.180;11.478;2023-03-23T12:34:44;19.70;55.80
4677;DHT22;2352;48.180;11.478;2023-03-23T12:37:57;19.60;55.40
4677;DHT22;2352;48.180;11.478;2023-03-23T12:41:08;19.50;55.50
4677;DHT22;2352;48.180;11.478;2023-03-23T12:44:13;19.60;55.00
4677;DHT22;2352;48.180;11.478;2023-03-23T12:47:33;19.60;54.20
4677;DHT22;2352;48.180;11.478;2023-03-23T12:50:41;19.50;54.40
4677;DHT22;2352;48.180;11.478;2023-03-23T12:53:52;19.50;54.50
4677;DHT22;2352;48.180;11.478;2023-03-23T12:57:00;19.40;54.40
4677;DHT22;2352;48.180;11.478;2023-03-23T13:00:12;19.30;54.20
4677;DHT22;2352;48.180;11.478;2023-03-23T13:03:20;19.40;54.80
4677;DHT22;2352;48.180;11.478;2023-03-23T13:06:29;19.40;55.00
4677;DHT22;2352;48.180;11.478;2023-03-23T13:09:38;19.50;55.00
4677;DHT22;2352;48.180;11.478;2023-03-23T13:12:41;19.60;55.20
4677;DHT22;2352;48.180;11.478;2023-03-23T13:15:50;19.50;56.70
4677;DHT22;2352;48.180;11.478;2023-03-23T13:19:02;19.50;57.10
4677;DHT22;2352;48.180;11.478;2023-03-23T13:22:10;19.50;57.60
4677;DHT22;2352;48.180;11.478;2023-03-23T13:25:17;19.50;58.80
4677;DHT22;2352;48.180;11.478;2023-03-23T13:28:21;19.50;58.40
4677;DHT22;2352;48.180;11.478;2023-03-23T13:31:28;19.60;58.00
4677;DHT22;2352;48.180;11.478;2023-03-23T13:34:35;19.70;58.30
4677;DHT22;2352;48.180;11.478;2023-03-23T13:37:45;19.70;57.70
4677;DHT22;2352;48.180;11.478;2023-03-23T13:40:47;19.70;57.60
4677;DHT22;2352;48.180;11.478;2023-03-23T13:43:50;19.80;57.60
4677;DHT22;2352;48.180;11.478;2023-03-23T13:47:08;19.80;56.90
4677;DHT22;2352;48.180;11.478;2023-03-23T13:50:27;19.80;57.00
4677;DHT22;2352;48.180;11.478;2023-03-23T13:53:43;19.60;57.90
4677;DHT22;2352;48.180;11.478;2023-03-23T13:56:52;19.70;57.80
4677;DHT22;2352;48.180;11.478;2023-03-23T13:59:59;19.50;58.50
4677;DHT22;2352;48.180;11.478;2023-03-23T14:03:14;19.50;58.60
4677;DHT22;2352;48.180;11.478;2023-03-23T14:06:19;19.50;58.60
4677;DHT22;2352;48.180;11.478;2023-03-23T14:09:26;19.40;58.00
4677;DHT22;2352;48.180;11.478;2023-03-23T14:12:29;19.30;57.60
4677;DHT22;2352;48.180;11.478;2023-03-23T14:15:40;19.40;56.50
4677;DHT22;2352;48.180;11.478;2023-03-23T14:18:51;19.40;56.80
4677;DHT22;2352;48.180;11.478;2023-03-23T14:21:55;19.30;56.90
4677;DHT22;2352;48.180;11.478;2023-03-23T14:25:01;19.40;57.10
4677;DHT22;2352;48.180;11.478;2023-03-23T14:28:17;19.40;56.90
4677;DHT22;2352;48.180;11.478;2023-03-23T14:31:26;19.40;57.00
4677;DHT22;2352;48.180;11.478;2023-03-23T14:34:30;19.30;57.40
4677;DHT22;2352;48.180;11.478;2023-03-23T14:37:33;19.20;57.70
4677;DHT22;2352;48.180;11.478;2023-03-23T14:40:37;19.10;58.30
4677;DHT22;2352;48.180;11.478;2023-03-23T14:43:39;18.90;59.00
4677;DHT22;2352;48.180;11.478;2023-03-23T14:46:42;19.10;59.20
4677;DHT22;2352;48.180;11.478;2023-03-23T14:49:45;19.00;58.30
4677;DHT22;2352;48.180;11.478;2023-03-23T14:52:48;19.10;58.40
4677;DHT22;2352;48.180;11.478;2023-03-23T14:55:53;19.00;58.90
4677;DHT22;2352;48.180;11.478;2023-03-23T14:59:03;19.00;58.50
4677;DHT22;2352;48.180;11.478;2023-03-23T15:02:05;19.10;59.00
4677;DHT22;2352;48.180;11.478;2023-03-23T15:05:10;19.00;58.30
4677;DHT22;2352;48.180;11.478;2023-03-23T15:08:15;19.00;59.10
4677;DHT22;2352;48.180;11.478;2023-03-23T15:11:24;18.90;59.10
4677;DHT22;2352;48.180;11.478;2023-03-23T15:14:30;18.80;59.40
4677;DHT22;2352;48.180;11.478;2023-03-23T15:17:35;18.80;59.50
4677;DHT22;2352;48.180;11.478;2023-03-23T15:20:46;18.70;59.60
4677;DHT22;2352;48.180;11.478;2023-03-23T15:23:48;18.80;61.70
4677;DHT22;2352;48.180;11.478;2023-03-23T15:26:51;18.90;62.70
4677;DHT22;2352;48.180;11.478;2023-03-23T15:29:55;18.90;61.80
4677;DHT22;2352;48.180;11.478;2023-03-23T15:33:02;18.90;62.00
4677;DHT22;2352;48.180;11.478;2023-03-23T15:36:07;18.90;61.50
4677;DHT22;2352;48.180;11.478;2023-03-23T15:39:11;18.70;62.40
4677;DHT22;2352;48.180;11.478;2023-03-23T15:42:23;18.60;62.80
4677;DHT22;2352;48.180;11.478;2023-03-23T15:45:27;18.80;63.40
4677;DHT22;2352;48.180;11.478;2023-03-23T15:48:29;18.80;62.60
4677;DHT22;2352;48.180;11.478;2023-03-23T15:51:31;18.80;61.80
4677;DHT22;2352;48.180;11.478;2023-03-23T15:54:34;18.70;62.60
4677;DHT22;2352;48.180;11.478;2023-03-23T15:57:37;18.80;62.50
4677;DHT22;2352;48.180;11.478;2023-03-23T16:00:39;18.80;63.00
4677;DHT22;2352;48.180;11.478;2023-03-23T16:03:54;18.80;63.50
4677;DHT22;2352;48.180;11.478;2023-03-23T16:06:57;18.60;62.60
4677;DHT22;2352;48.180;11.478;2023-03-23T16:10:00;18.60;63.40
4677;DHT22;2352;48.180;11.478;2023-03-23T16:13:05;18.60;62.30
4677;DHT22;2352;48.180;11.478;2023-03-23T16:16:13;18.60;62.70
4677;DHT22;2352;48.180;11.478;2023-03-23T16:19:17;18.60;62.30
4677;DHT22;2352;48.180;11.478;2023-03-23T16:22:24;18.60;63.40
4677;DHT22;2352;48.180;11.478;2023-03-23T16:25:27;18.60;64.80
4677;DHT22;2352;48.180;11.478;2023-03-23T16:28:31;18.60;65.80
4677;DHT22;2352;48.180;11.478;2023-03-23T16:31:35;18.50;65.30
4677;DHT22;2352;48.180;11.478;2023-03-23T16:34:37;18.40;64.80
4677;DHT22;2352;48.180;11.478;2023-03-23T16:37:44;18.40;66.70
4677;DHT22;2352;48.180;11.478;2023-03-23T16:40:47;18.40;67.70
4677;DHT22;2352;48.180;11.478;2023-03-23T16:43:51;18.40;68.20
4677;DHT22;2352;48.180;11.478;2023-03-23T16:46:54;18.40;67.80
4677;DHT22;2352;48.180;11.478;2023-03-23T16:49:57;18.30;68.60
4677;DHT22;2352;48.180;11.478;2023-03-23T16:53:00;18.40;68.60
4677;DHT22;2352;48.180;11.478;2023-03-23T16:56:04;18.40;68.60
4677;DHT22;2352;48.180;11.478;2023-03-23T16:59:08;18.50;70.40
4677;DHT22;2352;48.180;11.478;2023-03-23T17:02:11;18.60;70.80
4677;DHT22;2352;48.180;11.478;2023-03-23T17:05:14;18.70;68.90
4677;DHT22;2352;48.180;11.478;2023-03-23T17:08:19;18.60;67.90
4677;DHT22;2352;48.180;11.478;2023-03-23T17:11:22;18.60;70.50
4677;DHT22;2352;48.180;11.478;2023-03-23T17:14:26;18.70;69.40
4677;DHT22;2352;48.180;11.478;2023-03-23T17:17:29;18.60;69.60
4677;DHT22;2352;48.180;11.478;2023-03-23T17:20:33;18.50;70.00
4677;DHT22;2352;48.180;11.478;2023-03-23T17:23:35;18.50;70.80
4677;DHT22;2352;48.180;11.478;2023-03-23T17:26:38;18.50;71.40
4677;DHT22;2352;48.180;11.478;2023-03-23T17:29:44;18.50;69.70
4677;DHT22;2352;48.180;11.478;2023-03-23T17:32:47;18.50;69.60
4677;DHT22;2352;48.180;11.478;2023-03-23T17:35:50;18.40;70.30
4677;DHT22;2352;48.180;11.478;2023-03-23T17:38:54;18.40;70.50
4677;DHT22;2352;48.180;11.478;2023-03-23T17:41:58;18.30;72.40
4677;DHT22;2352;48.180;11.478;2023-03-23T17:45:04;18.30;70.60
4677;DHT22;2352;48.180;11.478;2023-03-23T17:48:07;18.30;71.50
4677;DHT22;2352;48.180;11.478;2023-03-23T17:51:11;18.30;70.60
4677;DHT22;2352;48.180;11.478;2023-03-23T17:54:14;18.20;70.50
4677;DHT22;2352;48.180;11.478;2023-03-23T17:57:17;18.20;70.90
4677;DHT22;2352;48.180;11.478;2023-03-23T18:00:22;18.20;71.30
4677;DHT22;2352;48.180;11.478;2023-03-23T18:03:25;18.20;70.30
4677;DHT22;2352;48.180;11.478;2023-03-23T18:06:28;18.20;72.00
4677;DHT22;2352;48.180;11.478;2023-03-23T18:09:30;18.20;73.50
4677;DHT22;2352;48.180;11.478;2023-03-23T18:12:33;18.10;71.90
4677;DHT22;2352;48.180;11.478;2023-03-23T18:15:37;18.00;71.80
4677;DHT22;2352;48.180;11.478;2023-03-23T18:18:47;17.90;70.40
4677;DHT22;2352;48.180;11.478;2023-03-23T18:21:50;18.00;71.90
4677;DHT22;2352;48.180;11.478;2023-03-23T18:24:53;18.00;71.10
4677;DHT22;2352;48.180;11.478;2023-03-23T18:27:56;17.90;71.50
4677;DHT22;2352;48.180;11.478;2023-03-23T18:31:12;17.90;70.50
4677;DHT22;2352;48.180;11.478;2023-03-23T18:34:15;17.80;70.10
4677;DHT22;2352;48.180;11.478;2023-03-23T18:37:18;17.80;72.20
4677;DHT22;2352;48.180;11.478;2023-03-23T18:40:21;17.80;73.00
4677;DHT22;2352;48.180;11.478;2023-03-23T18:43:24;17.70;70.20
4677;DHT22;2352;48.180;11.478;2023-03-23T18:46:29;17.70;70.10
4677;DHT22;2352;48.180;11.478;2023-03-23T18:49:32;17.70;69.70
4677;DHT22;2352;48.180;11.478;2023-03-23T18:52:35;17.70;69.60
4677;DHT22;2352;48.180;11.478;2023-03-23T18:55:38;17.60;69.60
4677;DHT22;2352;48.180;11.478;2023-03-23T18:58:40;17.60;69.50
4677;DHT22;2352;48.180;11.478;2023-03-23T19:01:45;17.60;69.50
4677;DHT22;2352;48.180;11.478;2023-03-23T19:04:48;17.50;69.60
4677;DHT22;2352;48.180;11.478;2023-03-23T19:07:51;17.60;69.70
4677;DHT22;2352;48.180;11.478;2023-03-23T19:10:59;17.60;69.90
4677;DHT22;2352;48.180;11.478;2023-03-23T19:14:02;17.60;69.90
4677;DHT22;2352;48.180;11.478;2023-03-23T19:17:07;17.60;69.90
4677;DHT22;2352;48.180;11.478;2023-03-23T19:20:11;17.50;70.50
4677;DHT22;2352;48.180;11.478;2023-03-23T19:23:30;17.60;70.50
4677;DHT22;2352;48.180;11.478;2023-03-23T19:26:35;17.60;70.20
4677;DHT22;2352;48.180;11.478;2023-03-23T19:29:39;17.60;71.20
4677;DHT22;2352;48.180;11.478;2023-03-23T19:32:43;17.60;73.00
4677;DHT22;2352;48.180;11.478;2023-03-23T19:35:47;17.60;73.70
4677;DHT22;2352;48.180;11.478;2023-03-23T19:39:09;17.60;74.10
4677;DHT22;2352;48.180;11.478;2023-03-23T19:42:12;17.60;74.90
4677;DHT22;2352;48.180;11.478;2023-03-23T19:45:17;17.60;75.30
4677;DHT22;2352;48.180;11.478;2023-03-23T19:48:21;17.50;75.30
4677;DHT22;2352;48.180;11.478;2023-03-23T19:51:24;17.50;75.30
4677;DHT22;2352;48.180;11.478;2023-03-23T19:54:27;17.40;74.90